sensor_id;sensor_type;location;lat;lon;timestamp;P1;durP1;ratioP1;P2;durP2;ratioP2
2041;SDS011;1026;51.460;7.252;2023-07-22T00:02:21;4.40;;;4.00;;
2041;SDS011;1026;51.460;7.252;2023-07-22T00:04:55;4.60;;;4.20;;
2041;SDS011;1026;51.460;7.252;2023-07-22T00:07:22;7.27;;;4.50;;
2041;SDS011;1026;51.460;7.252;2023-07-22T00:09:49;5.33;;;4.83;;
2041;SDS011;1026;51.460;7.252;2023-07-22T00:12:22;5.20;;;4.70;;
2041;SDS011;1026;51.460;7.252;2023-07-22T00:14:52;4.50;;;4.10;;
2041;SDS011;1026;51.460;7.252;2023-07-22T00:17:27;5.27;;;4.77;;
2041;SDS011;1026;51.460;7.252;2023-07-22T00:19:55;4.27;;;3.93;;
2041;SDS011;1026;51.460;7.252;2023-07-22T00:22:22;4.60;;;4.20;;
2041;SDS011;1026;51.460;7.252;2023-07-22T00:24:56;4.77;;;4.33;;
2041;SDS011;1026;51.460;7.252;2023-07-22T00:27:32;5.63;;;5.03;;
2041;SDS011;1026;51.460;7.252;2023-07-22T00:30:19;4.57;;;4.17;;
2041;SDS011;1026;51.460;7.252;2023-07-22T00:32:46;5.00;;;4.03;;
2041;SDS011;1026;51.460;7.252;2023-07-22T00:35:19;4.33;;;4.00;;
2041;SDS011;1026;51.460;7.252;2023-07-22T00:37:47;4.60;;;4.17;;
2041;SDS011;1026;51.460;7.252;2023-07-22T00:40:14;5.33;;;4.87;;
2041;SDS011;1026;51.460;7.252;2023-07-22T00:42:48;6.00;;;4.70;;
2041;SDS011;1026;51.460;7.252;2023-07-22T00:45:23;4.73;;;4.10;;
2041;SDS011;1026;51.460;7.252;2023-07-22T00:47:55;4.80;;;4.40;;
2041;SDS011;1026;51.460;7.252;2023-07-22T00:50:23;5.20;;;4.80;;
2041;SDS011;1026;51.460;7.252;2023-07-22T00:52:57;4.77;;;4.37;;
2041;SDS011;1026;51.460;7.252;2023-07-22T00:55:24;5.10;;;4.70;;
2041;SDS011;1026;51.460;7.252;2023-07-22T00:57:52;5.00;;;4.50;;
2041;SDS011;1026;51.460;7.252;2023-07-22T01:00:26;4.80;;;4.30;;
2041;SDS011;1026;51.460;7.252;2023-07-22T01:02:59;4.60;;;4.20;;
2041;SDS011;1026;51.460;7.252;2023-07-22T01:05:27;5.00;;;4.50;;
2041;SDS011;1026;51.460;7.252;2023-07-22T01:07:54;5.80;;;5.30;;
2041;SDS011;1026;51.460;7.252;2023-07-22T01:10:27;4.67;;;4.27;;
2041;SDS011;1026;51.460;7.252;2023-07-22T01:13:01;4.63;;;4.23;;
2041;SDS011;1026;51.460;7.252;2023-07-22T01:15:28;4.97;;;4.57;;
2041;SDS011;1026;51.460;7.252;2023-07-22T01:17:55;5.40;;;4.90;;
2041;SDS011;1026;51.460;7.252;2023-07-22T01:20:36;4.40;;;3.97;;
2041;SDS011;1026;51.460;7.252;2023-07-22T01:23:17;5.20;;;4.50;;
2041;SDS011;1026;51.460;7.252;2023-07-22T01:25:51;5.30;;;4.80;;
2041;SDS011;1026;51.460;7.252;2023-07-22T01:28:34;5.00;;;4.50;;
2041;SDS011;1026;51.460;7.252;2023-07-22T01:31:09;4.43;;;4.03;;
2041;SDS011;1026;51.460;7.252;2023-07-22T01:33:43;5.13;;;4.63;;
2041;SDS011;1026;51.460;7.252;2023-07-22T01:36:15;5.37;;;4.83;;
2041;SDS011;1026;51.460;7.252;2023-07-22T01:38:50;5.27;;;4.80;;
2041;SDS011;1026;51.460;7.252;2023-07-22T01:41:17;4.77;;;4.27;;
2041;SDS011;1026;51.460;7.252;2023-07-22T01:43:44;5.67;;;5.07;;
2041;SDS011;1026;51.460;7.252;2023-07-22T01:46:17;4.73;;;4.20;;
2041;SDS011;1026;51.460;7.252;2023-07-22T01:48:44;5.00;;;4.43;;
2041;SDS011;1026;51.460;7.252;2023-07-22T01:51:11;5.47;;;4.53;;
2041;SDS011;1026;51.460;7.252;2023-07-22T01:53:45;4.30;;;3.90;;
2041;SDS011;1026;51.460;7.252;2023-07-22T01:56:11;6.60;;;4.50;;
2041;SDS011;1026;51.460;7.252;2023-07-22T01:58:39;5.63;;;5.10;;
2041;SDS011;1026;51.460;7.252;2023-07-22T02:01:12;5.50;;;4.40;;
2041;SDS011;1026;51.460;7.252;2023-07-22T02:03:42;4.07;;;3.73;;
2041;SDS011;1026;51.460;7.252;2023-07-22T02:06:16;4.77;;;4.30;;
2041;SDS011;1026;51.460;7.252;2023-07-22T02:08:42;4.07;;;3.60;;
2041;SDS011;1026;51.460;7.252;2023-07-22T02:11:16;4.47;;;4.07;;
2041;SDS011;1026;51.460;7.252;2023-07-22T02:13:43;5.17;;;4.73;;
2041;SDS011;1026;51.460;7.252;2023-07-22T02:16:10;4.90;;;4.20;;
2041;SDS011;1026;51.460;7.252;2023-07-22T02:18:48;4.57;;;4.17;;
2041;SDS011;1026;51.460;7.252;2023-07-22T02:21:22;4.30;;;3.60;;
2041;SDS011;1026;51.460;7.252;2023-07-22T02:23:56;3.97;;;3.63;;
2041;SDS011;1026;51.460;7.252;2023-07-22T02:26:29;4.30;;;3.80;;
2041;SDS011;1026;51.460;7.252;2023-07-22T02:29:03;4.70;;;4.30;;
2041;SDS011;1026;51.460;7.252;2023-07-22T02:31:36;5.23;;;4.80;;
2041;SDS011;1026;51.460;7.252;2023-07-22T02:34:02;4.60;;;4.20;;
2041;SDS011;1026;51.460;7.252;2023-07-22T02:36:36;4.10;;;3.70;;
2041;SDS011;1026;51.460;7.252;2023-07-22T02:39:03;5.30;;;4.80;;
2041;SDS011;1026;51.460;7.252;2023-07-22T02:41:36;3.93;;;3.63;;
2041;SDS011;1026;51.460;7.252;2023-07-22T02:44:10;4.63;;;4.23;;
2041;SDS011;1026;51.460;7.252;2023-07-22T02:46:36;5.13;;;4.63;;
2041;SDS011;1026;51.460;7.252;2023-07-22T02:49:03;5.03;;;4.50;;
2041;SDS011;1026;51.460;7.252;2023-07-22T02:51:38;4.37;;;4.00;;
2041;SDS011;1026;51.460;7.252;2023-07-22T02:54:04;4.70;;;3.90;;
2041;SDS011;1026;51.460;7.252;2023-07-22T02:56:31;4.90;;;4.00;;
2041;SDS011;1026;51.460;7.252;2023-07-22T02:59:05;4.80;;;4.40;;
2041;SDS011;1026;51.460;7.252;2023-07-22T03:01:32;4.80;;;4.30;;
2041;SDS011;1026;51.460;7.252;2023-07-22T03:03:59;5.63;;;5.07;;
2041;SDS011;1026;51.460;7.252;2023-07-22T03:06:33;5.20;;;4.43;;
2041;SDS011;1026;51.460;7.252;2023-07-22T03:09:08;5.27;;;4.67;;
2041;SDS011;1026;51.460;7.252;2023-07-22T03:11:37;4.37;;;3.97;;
2041;SDS011;1026;51.460;7.252;2023-07-22T03:14:04;5.57;;;5.07;;
2041;SDS011;1026;51.460;7.252;2023-07-22T03:16:38;5.40;;;4.83;;
2041;SDS011;1026;51.460;7.252;2023-07-22T03:19:05;4.43;;;4.10;;
2041;SDS011;1026;51.460;7.252;2023-07-22T03:21:32;4.33;;;3.93;;
2041;SDS011;1026;51.460;7.252;2023-07-22T03:24:06;5.17;;;4.60;;
2041;SDS011;1026;51.460;7.252;2023-07-22T03:26:32;5.43;;;3.97;;
2041;SDS011;1026;51.460;7.252;2023-07-22T03:29:19;5.27;;;4.77;;
2041;SDS011;1026;51.460;7.252;2023-07-22T03:31:46;4.03;;;3.73;;
2041;SDS011;1026;51.460;7.252;2023-07-22T03:34:20;5.40;;;4.90;;
2041;SDS011;1026;51.460;7.252;2023-07-22T03:36:53;7.13;;;5.70;;
2041;SDS011;1026;51.460;7.252;2023-07-22T03:39:27;5.57;;;4.40;;
2041;SDS011;1026;51.460;7.252;2023-07-22T03:41:53;5.07;;;4.57;;
2041;SDS011;1026;51.460;7.252;2023-07-22T03:44:27;6.10;;;4.50;;
2041;SDS011;1026;51.460;7.252;2023-07-22T03:46:55;5.33;;;4.63;;
2041;SDS011;1026;51.460;7.252;2023-07-22T03:49:22;5.43;;;4.93;;
2041;SDS011;1026;51.460;7.252;2023-07-22T03:51:56;4.53;;;4.10;;
2041;SDS011;1026;51.460;7.252;2023-07-22T03:54:23;4.37;;;3.83;;
2041;SDS011;1026;51.460;7.252;2023-07-22T03:56:50;4.53;;;4.13;;
2041;SDS011;1026;51.460;7.252;2023-07-22T03:59:26;6.43;;;4.50;;
2041;SDS011;1026;51.460;7.252;2023-07-22T04:01:54;5.47;;;5.07;;
2041;SDS011;1026;51.460;7.252;2023-07-22T04:04:21;5.57;;;5.07;;
2041;SDS011;1026;51.460;7.252;2023-07-22T04:06:55;6.57;;;5.00;;
2041;SDS011;1026;51.460;7.252;2023-07-22T04:09:28;4.93;;;4.43;;
2041;SDS011;1026;51.460;7.252;2023-07-22T04:12:01;4.57;;;3.60;;
2041;SDS011;1026;51.460;7.252;2023-07-22T04:14:28;4.77;;;4.13;;
2041;SDS011;1026;51.460;7.252;2023-07-22T04:16:55;5.10;;;4.60;;
2041;SDS011;1026;51.460;7.252;2023-07-22T04:19:29;4.53;;;4.13;;
2041;SDS011;1026;51.460;7.252;2023-07-22T04:21:57;6.20;;;4.43;;
2041;SDS011;1026;51.460;7.252;2023-07-22T04:24:24;5.60;;;4.57;;
2041;SDS011;1026;51.460;7.252;2023-07-22T04:27:01;5.23;;;4.73;;
2041;SDS011;1026;51.460;7.252;2023-07-22T04:29:42;4.50;;;4.10;;
2041;SDS011;1026;51.460;7.252;2023-07-22T04:32:16;5.13;;;4.27;;
2041;SDS011;1026;51.460;7.252;2023-07-22T04:34:42;5.40;;;4.90;;
2041;SDS011;1026;51.460;7.252;2023-07-22T04:37:09;4.80;;;4.40;;
2041;SDS011;1026;51.460;7.252;2023-07-22T04:39:46;6.03;;;4.73;;
2041;SDS011;1026;51.460;7.252;2023-07-22T04:42:14;4.30;;;3.90;;
2041;SDS011;1026;51.460;7.252;2023-07-22T04:44:48;4.60;;;4.10;;
2041;SDS011;1026;51.460;7.252;2023-07-22T04:47:15;4.10;;;3.80;;
2041;SDS011;1026;51.460;7.252;2023-07-22T04:49:42;4.70;;;4.30;;
2041;SDS011;1026;51.460;7.252;2023-07-22T04:52:16;5.43;;;4.60;;
2041;SDS011;1026;51.460;7.252;2023-07-22T04:54:50;3.87;;;3.57;;
2041;SDS011;1026;51.460;7.252;2023-07-22T04:57:16;4.80;;;4.30;;
2041;SDS011;1026;51.460;7.252;2023-07-22T04:59:45;5.30;;;4.37;;
2041;SDS011;1026;51.460;7.252;2023-07-22T05:02:19;3.90;;;3.60;;
2041;SDS011;1026;51.460;7.252;2023-07-22T05:04:46;3.50;;;3.20;;
2041;SDS011;1026;51.460;7.252;2023-07-22T05:07:19;4.50;;;4.10;;
2041;SDS011;1026;51.460;7.252;2023-07-22T05:09:56;4.93;;;4.00;;
2041;SDS011;1026;51.460;7.252;2023-07-22T05:12:23;5.00;;;4.13;;
2041;SDS011;1026;51.460;7.252;2023-07-22T05:14:57;3.40;;;3.10;;
2041;SDS011;1026;51.460;7.252;2023-07-22T05:17:24;4.90;;;4.27;;
2041;SDS011;1026;51.460;7.252;2023-07-22T05:19:58;4.40;;;4.00;;
2041;SDS011;1026;51.460;7.252;2023-07-22T05:22:25;4.40;;;4.00;;
2041;SDS011;1026;51.460;7.252;2023-07-22T05:24:52;4.87;;;4.47;;
2041;SDS011;1026;51.460;7.252;2023-07-22T05:27:32;3.90;;;3.60;;
2041;SDS011;1026;51.460;7.252;2023-07-22T05:29:59;4.90;;;4.40;;
2041;SDS011;1026;51.460;7.252;2023-07-22T05:32:52;4.10;;;3.70;;
2041;SDS011;1026;51.460;7.252;2023-07-22T05:35:19;4.53;;;4.13;;
2041;SDS011;1026;51.460;7.252;2023-07-22T05:37:53;6.50;;;4.20;;
2041;SDS011;1026;51.460;7.252;2023-07-22T05:40:20;5.23;;;4.20;;
2041;SDS011;1026;51.460;7.252;2023-07-22T05:42:47;5.00;;;4.50;;
2041;SDS011;1026;51.460;7.252;2023-07-22T05:45:21;5.00;;;4.50;;
2041;SDS011;1026;51.460;7.252;2023-07-22T05:47:48;4.50;;;3.43;;
2041;SDS011;1026;51.460;7.252;2023-07-22T05:50:22;4.60;;;4.17;;
2041;SDS011;1026;51.460;7.252;2023-07-22T05:52:56;5.17;;;4.73;;
2041;SDS011;1026;51.460;7.252;2023-07-22T05:55:23;4.23;;;3.87;;
2041;SDS011;1026;51.460;7.252;2023-07-22T05:57:50;4.00;;;3.53;;
2041;SDS011;1026;51.460;7.252;2023-07-22T06:00:43;3.80;;;3.23;;
2041;SDS011;1026;51.460;7.252;2023-07-22T06:03:28;5.10;;;4.70;;
2041;SDS011;1026;51.460;7.252;2023-07-22T06:05:55;5.67;;;4.43;;
2041;SDS011;1026;51.460;7.252;2023-07-22T06:08:40;4.53;;;4.13;;
2041;SDS011;1026;51.460;7.252;2023-07-22T06:11:14;4.20;;;3.80;;
2041;SDS011;1026;51.460;7.252;2023-07-22T06:13:48;3.73;;;3.27;;
2041;SDS011;1026;51.460;7.252;2023-07-22T06:16:15;4.90;;;4.50;;
2041;SDS011;1026;51.460;7.252;2023-07-22T06:18:50;4.30;;;3.87;;
2041;SDS011;1026;51.460;7.252;2023-07-22T06:21:16;4.13;;;3.77;;
2041;SDS011;1026;51.460;7.252;2023-07-22T06:23:43;4.50;;;4.10;;
2041;SDS011;1026;51.460;7.252;2023-07-22T06:26:17;3.73;;;3.40;;
2041;SDS011;1026;51.460;7.252;2023-07-22T06:28:58;4.53;;;4.00;;
2041;SDS011;1026;51.460;7.252;2023-07-22T06:31:31;3.77;;;3.37;;
2041;SDS011;1026;51.460;7.252;2023-07-22T06:33:59;3.53;;;3.10;;
2041;SDS011;1026;51.460;7.252;2023-07-22T06:36:26;4.20;;;3.80;;
2041;SDS011;1026;51.460;7.252;2023-07-22T06:39:00;4.20;;;3.87;;
2041;SDS011;1026;51.460;7.252;2023-07-22T06:41:27;6.00;;;4.70;;
2041;SDS011;1026;51.460;7.252;2023-07-22T06:43:54;4.70;;;3.90;;
2041;SDS011;1026;51.460;7.252;2023-07-22T06:46:28;5.00;;;4.37;;
2041;SDS011;1026;51.460;7.252;2023-07-22T06:48:56;4.50;;;4.10;;
2041;SDS011;1026;51.460;7.252;2023-07-22T06:51:29;4.70;;;4.13;;
2041;SDS011;1026;51.460;7.252;2023-07-22T06:53:56;6.07;;;3.90;;
2041;SDS011;1026;51.460;7.252;2023-07-22T06:56:23;3.43;;;3.13;;
2041;SDS011;1026;51.460;7.252;2023-07-22T06:58:59;5.63;;;3.67;;
2041;SDS011;1026;51.460;7.252;2023-07-22T07:01:26;4.77;;;3.90;;
2041;SDS011;1026;51.460;7.252;2023-07-22T07:03:53;4.03;;;3.63;;
2041;SDS011;1026;51.460;7.252;2023-07-22T07:06:28;4.87;;;3.83;;
2041;SDS011;1026;51.460;7.252;2023-07-22T07:09:02;4.03;;;3.63;;
2041;SDS011;1026;51.460;7.252;2023-07-22T07:11:30;4.73;;;3.57;;
2041;SDS011;1026;51.460;7.252;2023-07-22T07:14:04;3.90;;;3.53;;
2041;SDS011;1026;51.460;7.252;2023-07-22T07:16:31;3.70;;;3.40;;
2041;SDS011;1026;51.460;7.252;2023-07-22T07:19:00;4.60;;;4.10;;
2041;SDS011;1026;51.460;7.252;2023-07-22T07:21:35;3.93;;;3.53;;
2041;SDS011;1026;51.460;7.252;2023-07-22T07:24:02;3.70;;;3.40;;
2041;SDS011;1026;51.460;7.252;2023-07-22T07:26:29;3.70;;;3.27;;
2041;SDS011;1026;51.460;7.252;2023-07-22T07:29:03;4.23;;;3.93;;
2041;SDS011;1026;51.460;7.252;2023-07-22T07:31:39;5.10;;;4.50;;
2041;SDS011;1026;51.460;7.252;2023-07-22T07:34:13;3.83;;;3.53;;
2041;SDS011;1026;51.460;7.252;2023-07-22T07:36:40;4.50;;;4.10;;
2041;SDS011;1026;51.460;7.252;2023-07-22T07:39:14;4.43;;;4.03;;
2041;SDS011;1026;51.460;7.252;2023-07-22T07:41:41;4.67;;;4.27;;
2041;SDS011;1026;51.460;7.252;2023-07-22T07:44:09;3.93;;;3.53;;
2041;SDS011;1026;51.460;7.252;2023-07-22T07:46:42;4.43;;;4.03;;
2041;SDS011;1026;51.460;7.252;2023-07-22T07:49:09;4.10;;;3.70;;
2041;SDS011;1026;51.460;7.252;2023-07-22T07:51:37;6.30;;;3.70;;
2041;SDS011;1026;51.460;7.252;2023-07-22T07:54:10;4.57;;;4.17;;
2041;SDS011;1026;51.460;7.252;2023-07-22T07:56:38;3.83;;;3.27;;
2041;SDS011;1026;51.460;7.252;2023-07-22T07:59:11;5.30;;;4.80;;
2041;SDS011;1026;51.460;7.252;2023-07-22T08:01:38;4.10;;;3.57;;
2041;SDS011;1026;51.460;7.252;2023-07-22T08:04:14;4.70;;;4.00;;
2041;SDS011;1026;51.460;7.252;2023-07-22T08:06:43;4.33;;;3.93;;
2041;SDS011;1026;51.460;7.252;2023-07-22T08:09:17;5.33;;;4.10;;
2041;SDS011;1026;51.460;7.252;2023-07-22T08:11:46;3.73;;;3.40;;
2041;SDS011;1026;51.460;7.252;2023-07-22T08:14:13;4.37;;;3.97;;
2041;SDS011;1026;51.460;7.252;2023-07-22T08:16:47;4.17;;;3.87;;
2041;SDS011;1026;51.460;7.252;2023-07-22T08:19:14;5.00;;;3.93;;
2041;SDS011;1026;51.460;7.252;2023-07-22T08:21:48;3.60;;;3.30;;
2041;SDS011;1026;51.460;7.252;2023-07-22T08:24:15;4.17;;;3.77;;
2041;SDS011;1026;51.460;7.252;2023-07-22T08:26:43;4.33;;;3.90;;
2041;SDS011;1026;51.460;7.252;2023-07-22T08:29:23;4.93;;;4.43;;
2041;SDS011;1026;51.460;7.252;2023-07-22T08:31:50;4.53;;;4.13;;
2041;SDS011;1026;51.460;7.252;2023-07-22T08:34:23;4.40;;;3.90;;
2041;SDS011;1026;51.460;7.252;2023-07-22T08:36:50;7.30;;;4.33;;
2041;SDS011;1026;51.460;7.252;2023-07-22T08:39:17;4.80;;;4.30;;
2041;SDS011;1026;51.460;7.252;2023-07-22T08:41:51;4.70;;;4.30;;
2041;SDS011;1026;51.460;7.252;2023-07-22T08:44:27;5.20;;;3.73;;
2041;SDS011;1026;51.460;7.252;2023-07-22T08:47:07;4.93;;;4.13;;
2041;SDS011;1026;51.460;7.252;2023-07-22T08:49:49;4.43;;;4.03;;
2041;SDS011;1026;51.460;7.252;2023-07-22T08:52:18;3.77;;;3.47;;
2041;SDS011;1026;51.460;7.252;2023-07-22T08:54:52;8.33;;;4.10;;
2041;SDS011;1026;51.460;7.252;2023-07-22T08:57:20;4.97;;;4.53;;
2041;SDS011;1026;51.460;7.252;2023-07-22T08:59:56;5.20;;;4.47;;
2041;SDS011;1026;51.460;7.252;2023-07-22T09:02:24;5.53;;;4.77;;
2041;SDS011;1026;51.460;7.252;2023-07-22T09:04:58;4.43;;;4.03;;
2041;SDS011;1026;51.460;7.252;2023-07-22T09:07:25;4.90;;;4.20;;
2041;SDS011;1026;51.460;7.252;2023-07-22T09:09:53;5.20;;;4.70;;
2041;SDS011;1026;51.460;7.252;2023-07-22T09:12:27;4.23;;;3.93;;
2041;SDS011;1026;51.460;7.252;2023-07-22T09:14:55;4.83;;;4.43;;
2041;SDS011;1026;51.460;7.252;2023-07-22T09:17:29;4.23;;;3.83;;
2041;SDS011;1026;51.460;7.252;2023-07-22T09:19:57;4.53;;;4.13;;
2041;SDS011;1026;51.460;7.252;2023-07-22T09:22:25;5.20;;;4.70;;
2041;SDS011;1026;51.460;7.252;2023-07-22T09:28:13;4.70;;;4.30;;
2041;SDS011;1026;51.460;7.252;2023-07-22T09:30:47;5.90;;;3.90;;
2041;SDS011;1026;51.460;7.252;2023-07-22T09:33:21;4.17;;;3.80;;
2041;SDS011;1026;51.460;7.252;2023-07-22T09:35:49;4.67;;;4.07;;
2041;SDS011;1026;51.460;7.252;2023-07-22T09:38:23;4.80;;;4.03;;
2041;SDS011;1026;51.460;7.252;2023-07-22T09:40:57;4.90;;;4.40;;
2041;SDS011;1026;51.460;7.252;2023-07-22T09:43:24;7.00;;;4.50;;
2041;SDS011;1026;51.460;7.252;2023-07-22T09:46:05;4.80;;;4.00;;
2041;SDS011;1026;51.460;7.252;2023-07-22T09:48:39;8.60;;;4.40;;
2041;SDS011;1026;51.460;7.252;2023-07-22T09:51:15;4.77;;;4.33;;
2041;SDS011;1026;51.460;7.252;2023-07-22T09:53:59;4.97;;;4.47;;
2041;SDS011;1026;51.460;7.252;2023-07-22T09:56:42;4.63;;;4.03;;
2041;SDS011;1026;51.460;7.252;2023-07-22T09:59:11;4.80;;;4.30;;
2041;SDS011;1026;51.460;7.252;2023-07-22T10:01:46;4.73;;;4.33;;
2041;SDS011;1026;51.460;7.252;2023-07-22T10:04:17;4.73;;;3.87;;
2041;SDS011;1026;51.460;7.252;2023-07-22T10:06:54;4.57;;;3.93;;
2041;SDS011;1026;51.460;7.252;2023-07-22T10:09:22;5.17;;;4.40;;
2041;SDS011;1026;51.460;7.252;2023-07-22T10:11:52;4.43;;;4.03;;
2041;SDS011;1026;51.460;7.252;2023-07-22T10:14:26;5.20;;;4.80;;
2041;SDS011;1026;51.460;7.252;2023-07-22T10:17:03;4.47;;;4.10;;
2041;SDS011;1026;51.460;7.252;2023-07-22T10:19:32;6.03;;;5.40;;
2041;SDS011;1026;51.460;7.252;2023-07-22T10:22:00;4.20;;;3.80;;
2041;SDS011;1026;51.460;7.252;2023-07-22T10:24:34;4.63;;;4.13;;
2041;SDS011;1026;51.460;7.252;2023-07-22T10:27:08;4.33;;;3.93;;
2041;SDS011;1026;51.460;7.252;2023-07-22T10:29:58;4.77;;;4.27;;
2041;SDS011;1026;51.460;7.252;2023-07-22T10:32:33;4.23;;;3.83;;
2041;SDS011;1026;51.460;7.252;2023-07-22T10:35:23;4.50;;;4.10;;
2041;SDS011;1026;51.460;7.252;2023-07-22T10:38:14;4.10;;;3.70;;
2041;SDS011;1026;51.460;7.252;2023-07-22T10:40:49;4.23;;;3.80;;
2041;SDS011;1026;51.460;7.252;2023-07-22T10:43:18;4.90;;;4.40;;
2041;SDS011;1026;51.460;7.252;2023-07-22T10:45:58;4.37;;;3.70;;
2041;SDS011;1026;51.460;7.252;2023-07-22T10:48:35;5.20;;;4.70;;
2041;SDS011;1026;51.460;7.252;2023-07-22T10:51:11;5.00;;;4.20;;
2041;SDS011;1026;51.460;7.252;2023-07-22T10:53:48;4.90;;;4.40;;
2041;SDS011;1026;51.460;7.252;2023-07-22T10:56:23;6.37;;;5.00;;
2041;SDS011;1026;51.460;7.252;2023-07-22T10:59:01;3.83;;;3.53;;
2041;SDS011;1026;51.460;7.252;2023-07-22T11:04:28;4.10;;;3.63;;
2041;SDS011;1026;51.460;7.252;2023-07-22T11:07:16;5.23;;;4.73;;
2041;SDS011;1026;51.460;7.252;2023-07-22T11:10:18;5.13;;;4.00;;
2041;SDS011;1026;51.460;7.252;2023-07-22T11:12:46;4.67;;;4.27;;
2041;SDS011;1026;51.460;7.252;2023-07-22T11:15:20;4.50;;;3.80;;
2041;SDS011;1026;51.460;7.252;2023-07-22T11:17:49;4.40;;;4.00;;
2041;SDS011;1026;51.460;7.252;2023-07-22T11:20:15;3.83;;;3.53;;
2041;SDS011;1026;51.460;7.252;2023-07-22T11:22:50;4.30;;;4.00;;
2041;SDS011;1026;51.460;7.252;2023-07-22T11:25:17;4.23;;;3.90;;
2041;SDS011;1026;51.460;7.252;2023-07-22T11:28:04;3.17;;;2.97;;
2041;SDS011;1026;51.460;7.252;2023-07-22T11:30:32;4.20;;;3.90;;
2041;SDS011;1026;51.460;7.252;2023-07-22T11:33:05;4.17;;;3.57;;
2041;SDS011;1026;51.460;7.252;2023-07-22T11:35:33;3.90;;;3.50;;
2041;SDS011;1026;51.460;7.252;2023-07-22T11:38:06;3.63;;;3.33;;
2041;SDS011;1026;51.460;7.252;2023-07-22T11:40:39;4.27;;;3.87;;
2041;SDS011;1026;51.460;7.252;2023-07-22T11:43:07;3.83;;;3.53;;
2041;SDS011;1026;51.460;7.252;2023-07-22T11:45:43;3.77;;;3.47;;
2041;SDS011;1026;51.460;7.252;2023-07-22T11:48:12;4.27;;;3.87;;
2041;SDS011;1026;51.460;7.252;2023-07-22T11:50:52;4.10;;;3.70;;
2041;SDS011;1026;51.460;7.252;2023-07-22T11:53:31;3.57;;;3.27;;
2041;SDS011;1026;51.460;7.252;2023-07-22T11:56:05;3.37;;;3.07;;
2041;SDS011;1026;51.460;7.252;2023-07-22T11:58:33;3.97;;;3.60;;
2041;SDS011;1026;51.460;7.252;2023-07-22T12:01:05;5.97;;;3.83;;
2041;SDS011;1026;51.460;7.252;2023-07-22T12:03:41;3.47;;;3.17;;
2041;SDS011;1026;51.460;7.252;2023-07-22T12:06:08;4.60;;;3.90;;
2041;SDS011;1026;51.460;7.252;2023-07-22T12:08:36;3.90;;;3.13;;
2041;SDS011;1026;51.460;7.252;2023-07-22T12:11:18;4.00;;;3.60;;
2041;SDS011;1026;51.460;7.252;2023-07-22T12:13:47;3.73;;;3.43;;
2041;SDS011;1026;51.460;7.252;2023-07-22T12:16:23;3.17;;;2.97;;
2041;SDS011;1026;51.460;7.252;2023-07-22T12:18:54;3.10;;;2.80;;
2041;SDS011;1026;51.460;7.252;2023-07-22T12:21:28;3.57;;;3.27;;
2041;SDS011;1026;51.460;7.252;2023-07-22T12:24:02;4.73;;;3.27;;
2041;SDS011;1026;51.460;7.252;2023-07-22T12:26:36;4.23;;;3.83;;
2041;SDS011;1026;51.460;7.252;2023-07-22T12:29:16;2.83;;;2.63;;
2041;SDS011;1026;51.460;7.252;2023-07-22T12:31:43;3.70;;;3.33;;
2041;SDS011;1026;51.460;7.252;2023-07-22T12:34:16;3.20;;;3.00;;
2041;SDS011;1026;51.460;7.252;2023-07-22T12:36:44;3.60;;;3.30;;
2041;SDS011;1026;51.460;7.252;2023-07-22T12:39:10;3.13;;;2.90;;
2041;SDS011;1026;51.460;7.252;2023-07-22T12:41:44;2.67;;;2.43;;
2041;SDS011;1026;51.460;7.252;2023-07-22T12:44:17;3.60;;;3.30;;
2041;SDS011;1026;51.460;7.252;2023-07-22T12:46:45;3.47;;;3.17;;
2041;SDS011;1026;51.460;7.252;2023-07-22T12:49:12;3.53;;;3.23;;
2041;SDS011;1026;51.460;7.252;2023-07-22T12:51:45;2.80;;;2.60;;
2041;SDS011;1026;51.460;7.252;2023-07-22T12:54:19;3.53;;;3.23;;
2041;SDS011;1026;51.460;7.252;2023-07-22T12:56:54;2.80;;;2.60;;
2041;SDS011;1026;51.460;7.252;2023-07-22T12:59:21;3.00;;;2.70;;
2041;SDS011;1026;51.460;7.252;2023-07-22T13:01:48;3.90;;;3.50;;
2041;SDS011;1026;51.460;7.252;2023-07-22T13:04:22;3.23;;;2.93;;
2041;SDS011;1026;51.460;7.252;2023-07-22T13:06:49;5.43;;;3.10;;
2041;SDS011;1026;51.460;7.252;2023-07-22T13:09:24;3.93;;;3.00;;
2041;SDS011;1026;51.460;7.252;2023-07-22T13:11:58;3.07;;;2.77;;
2041;SDS011;1026;51.460;7.252;2023-07-22T13:14:25;4.00;;;3.47;;
2041;SDS011;1026;51.460;7.252;2023-07-22T13:16:52;2.60;;;2.37;;
2041;SDS011;1026;51.460;7.252;2023-07-22T13:19:26;2.67;;;2.47;;
2041;SDS011;1026;51.460;7.252;2023-07-22T13:21:54;3.00;;;2.70;;
2041;SDS011;1026;51.460;7.252;2023-07-22T13:24:21;2.70;;;2.50;;
2041;SDS011;1026;51.460;7.252;2023-07-22T13:26:55;3.10;;;2.90;;
2041;SDS011;1026;51.460;7.252;2023-07-22T13:29:42;3.50;;;3.20;;
2041;SDS011;1026;51.460;7.252;2023-07-22T13:32:09;3.00;;;2.80;;
2041;SDS011;1026;51.460;7.252;2023-07-22T13:34:43;3.63;;;3.33;;
2041;SDS011;1026;51.460;7.252;2023-07-22T13:37:17;2.50;;;2.30;;
2041;SDS011;1026;51.460;7.252;2023-07-22T13:42:18;2.70;;;2.50;;
2041;SDS011;1026;51.460;7.252;2023-07-22T13:44:46;2.13;;;2.03;;
2041;SDS011;1026;51.460;7.252;2023-07-22T13:47:13;6.80;;;3.17;;
2041;SDS011;1026;51.460;7.252;2023-07-22T13:49:47;3.70;;;3.30;;
2041;SDS011;1026;51.460;7.252;2023-07-22T13:52:21;3.20;;;3.00;;
2041;SDS011;1026;51.460;7.252;2023-07-22T13:54:54;3.30;;;3.00;;
2041;SDS011;1026;51.460;7.252;2023-07-22T13:57:28;2.80;;;2.60;;
2041;SDS011;1026;51.460;7.252;2023-07-22T14:00:02;2.90;;;2.70;;
2041;SDS011;1026;51.460;7.252;2023-07-22T14:02:35;2.53;;;2.33;;
2041;SDS011;1026;51.460;7.252;2023-07-22T14:05:08;4.13;;;2.67;;
2041;SDS011;1026;51.460;7.252;2023-07-22T14:07:43;2.57;;;2.37;;
2041;SDS011;1026;51.460;7.252;2023-07-22T14:10:16;3.97;;;3.00;;
2041;SDS011;1026;51.460;7.252;2023-07-22T14:12:43;2.97;;;2.70;;
2041;SDS011;1026;51.460;7.252;2023-07-22T14:15:10;2.33;;;2.23;;
2041;SDS011;1026;51.460;7.252;2023-07-22T14:17:43;3.00;;;2.70;;
2041;SDS011;1026;51.460;7.252;2023-07-22T14:20:11;2.70;;;2.50;;
2041;SDS011;1026;51.460;7.252;2023-07-22T14:22:45;3.20;;;2.97;;
2041;SDS011;1026;51.460;7.252;2023-07-22T14:25:18;3.57;;;2.83;;
2041;SDS011;1026;51.460;7.252;2023-07-22T14:27:52;2.83;;;2.60;;
2041;SDS011;1026;51.460;7.252;2023-07-22T14:30:25;3.30;;;3.00;;
2041;SDS011;1026;51.460;7.252;2023-07-22T14:32:52;2.70;;;2.50;;
2041;SDS011;1026;51.460;7.252;2023-07-22T14:35:19;2.70;;;2.50;;
2041;SDS011;1026;51.460;7.252;2023-07-22T14:37:53;3.07;;;2.87;;
2041;SDS011;1026;51.460;7.252;2023-07-22T14:40:20;2.50;;;2.30;;
2041;SDS011;1026;51.460;7.252;2023-07-22T14:42:53;3.20;;;2.83;;
2041;SDS011;1026;51.460;7.252;2023-07-22T14:45:27;2.87;;;2.63;;
2041;SDS011;1026;51.460;7.252;2023-07-22T14:47:54;2.70;;;2.50;;
2041;SDS011;1026;51.460;7.252;2023-07-22T14:50:21;2.90;;;2.70;;
2041;SDS011;1026;51.460;7.252;2023-07-22T14:52:55;2.93;;;2.70;;
2041;SDS011;1026;51.460;7.252;2023-07-22T14:55:22;2.90;;;2.70;;
2041;SDS011;1026;51.460;7.252;2023-07-22T14:57:56;3.40;;;3.10;;
2041;SDS011;1026;51.460;7.252;2023-07-22T15:00:23;3.03;;;2.83;;
2041;SDS011;1026;51.460;7.252;2023-07-22T15:02:51;3.00;;;2.80;;
2041;SDS011;1026;51.460;7.252;2023-07-22T15:05:25;3.57;;;3.27;;
2041;SDS011;1026;51.460;7.252;2023-07-22T15:07:58;2.30;;;2.20;;
2041;SDS011;1026;51.460;7.252;2023-07-22T15:10:26;3.60;;;3.30;;
2041;SDS011;1026;51.460;7.252;2023-07-22T15:12:59;3.90;;;2.93;;
2041;SDS011;1026;51.460;7.252;2023-07-22T15:15:27;3.20;;;2.87;;
2041;SDS011;1026;51.460;7.252;2023-07-22T15:17:54;3.00;;;2.70;;
2041;SDS011;1026;51.460;7.252;2023-07-22T15:20:27;4.50;;;3.50;;
2041;SDS011;1026;51.460;7.252;2023-07-22T15:23:00;3.73;;;2.77;;
2041;SDS011;1026;51.460;7.252;2023-07-22T15:25:27;2.70;;;2.50;;
2041;SDS011;1026;51.460;7.252;2023-07-22T15:27:54;2.70;;;2.50;;
2041;SDS011;1026;51.460;7.252;2023-07-22T15:30:28;2.43;;;2.23;;
2041;SDS011;1026;51.460;7.252;2023-07-22T15:33:02;3.03;;;2.83;;
2041;SDS011;1026;51.460;7.252;2023-07-22T15:35:35;3.63;;;2.67;;
2041;SDS011;1026;51.460;7.252;2023-07-22T15:38:03;3.10;;;2.90;;
2041;SDS011;1026;51.460;7.252;2023-07-22T15:40:30;2.90;;;2.70;;
2041;SDS011;1026;51.460;7.252;2023-07-22T15:43:09;3.80;;;2.70;;
2041;SDS011;1026;51.460;7.252;2023-07-22T15:45:36;2.70;;;2.50;;
2041;SDS011;1026;51.460;7.252;2023-07-22T15:48:10;2.73;;;2.20;;
2041;SDS011;1026;51.460;7.252;2023-07-22T15:50:37;2.70;;;2.47;;
2041;SDS011;1026;51.460;7.252;2023-07-22T15:53:05;2.93;;;2.73;;